sim
Sign-in with your pilot id or email,
or register
Callsign
Passwort

Schedule Details

Flight Number: OEO7679
Departure: Boston Logan International Airport (KBOS) at 20:45
Arrival: Munich Airport (EDDM) at 04:20

Weather Information
Getting current METAR information for KBOS 181254Z 01015KT 10SM BKN032 BKN043 OVC250 14/08 A3000 RMK AO2 SLP159 T01390078
Getting current METAR information for EDDM 181320Z 08011KT CAVOK 19/10 Q1024 NOSIG

Schedule Frequency

Route Map